Time;durP1;ratioP1;P1;durP2;ratioP2;P2;SDS_P1;SDS_P2;PMS_P1;PMS_P2;Temp;Humidity;BMP_temperature;BMP_pressure;BME280_temperature;BME280_humidity;BME280_pressure;Samples;Min_cycle;Max_cycle;Signal;HPM_P1;HPM_P2
2023/11/18 00:01:25;;;;;;;4.70;4.00;;;4.80;99.90;;;;;;5040252;28;20282;-46
2023/11/18 00:03:51;;;;;;;5.10;3.87;;;4.90;99.90;;;;;;5037969;28;20199;-43
2023/11/18 00:06:20;;;;;;;5.33;4.10;;;4.90;99.90;;;;;;5040605;28;20204;-44
2023/11/18 00:08:46;;;;;;;4.60;4.10;;;4.90;99.90;;;;;;5007024;28;21245;-44
2023/11/18 00:11:13;;;;;;;4.17;3.87;;;4.90;99.90;;;;;;5038405;28;20249;-43
2023/11/18 00:13:42;;;;;;;4.07;3.57;;;4.90;99.90;;;;;;5029461;28;20577;-45
2023/11/18 00:16:11;;;;;;;4.90;4.03;;;4.90;99.90;;;;;;5040413;28;20666;-45
2023/11/18 00:18:39;;;;;;;5.40;4.00;;;4.90;99.90;;;;;;5036879;28;20255;-43
2023/11/18 00:21:07;;;;;;;6.50;4.10;;;4.90;99.90;;;;;;5036931;28;20261;-47
2023/11/18 00:23:35;;;;;;;4.13;3.70;;;4.90;99.90;;;;;;5037455;28;20218;-41
2023/11/18 00:26:03;;;;;;;4.53;3.63;;;4.90;99.90;;;;;;5011752;28;20223;-48
2023/11/18 00:28:29;;;;;;;6.10;4.17;;;4.90;99.90;;;;;;5037668;28;20714;-42
2023/11/18 00:30:56;;;;;;;4.30;3.70;;;5.00;99.90;;;;;;5035525;28;20475;-41
2023/11/18 00:33:23;;;;;;;4.43;4.03;;;5.00;99.90;;;;;;5040129;28;20195;-43
2023/11/18 00:35:50;;;;;;;5.13;3.63;;;5.00;99.90;;;;;;5037160;28;20931;-44
2023/11/18 00:38:17;;;;;;;4.50;3.70;;;5.00;99.90;;;;;;5038786;28;20235;-42
2023/11/18 00:40:45;;;;;;;5.90;3.60;;;5.10;99.90;;;;;;5006479;28;22179;-47
2023/11/18 00:43:12;;;;;;;6.03;4.10;;;5.10;99.90;;;;;;5040329;28;20838;-48
2023/11/18 00:45:40;;;;;;;4.10;3.70;;;5.10;99.90;;;;;;5033284;28;20264;-43
2023/11/18 00:48:11;;;;;;;4.50;4.07;;;5.10;99.90;;;;;;5039390;28;20223;-46
2023/11/18 00:50:37;;;;;;;4.27;3.60;;;5.00;99.90;;;;;;5036913;28;20199;-42
2023/11/18 00:53:05;;;;;;;4.93;4.10;;;5.10;99.90;;;;;;5038903;28;20202;-44
2023/11/18 00:55:32;;;;;;;4.47;3.87;;;5.10;99.90;;;;;;5018910;28;20662;-41
2023/11/18 00:58:00;;;;;;;4.23;3.67;;;5.10;99.90;;;;;;5027443;28;20219;-44
2023/11/18 01:00:27;;;;;;;4.17;3.53;;;5.10;99.90;;;;;;5041015;28;20201;-43
2023/11/18 01:02:55;;;;;;;3.90;3.33;;;5.10;99.90;;;;;;5040066;28;20322;-47
2023/11/18 01:05:22;;;;;;;6.33;4.20;;;5.20;99.90;;;;;;5042431;28;20294;-43
2023/11/18 01:07:49;;;;;;;4.03;3.63;;;5.20;99.90;;;;;;5039210;28;20820;-45
2023/11/18 01:10:16;;;;;;;3.83;3.43;;;5.20;99.90;;;;;;5043661;28;20199;-47
2023/11/18 01:12:45;;;;;;;4.33;3.57;;;5.20;99.90;;;;;;5009336;28;20208;-49
2023/11/18 01:15:14;;;;;;;4.00;3.23;;;5.10;99.90;;;;;;5038345;28;20237;-45
2023/11/18 01:17:42;;;;;;;5.07;4.20;;;5.10;99.90;;;;;;5039702;28;20302;-47
2023/11/18 01:20:10;;;;;;;4.30;3.90;;;5.10;99.90;;;;;;5039940;28;20219;-45
2023/11/18 01:22:39;;;;;;;3.93;3.53;;;5.20;99.90;;;;;;5038813;28;20567;-41
2023/11/18 01:25:08;;;;;;;5.07;3.90;;;5.20;99.90;;;;;;5041369;28;20191;-44
2023/11/18 01:27:35;;;;;;;4.23;3.83;;;5.10;99.90;;;;;;5017762;28;20235;-41
2023/11/18 01:30:04;;;;;;;5.50;3.77;;;5.10;99.90;;;;;;5031169;28;20206;-46
2023/11/18 01:32:32;;;;;;;6.30;3.40;;;5.10;99.90;;;;;;5038392;28;20204;-44
2023/11/18 01:34:59;;;;;;;4.23;3.80;;;5.10;99.90;;;;;;5040028;28;20207;-43
2023/11/18 01:37:26;;;;;;;3.77;3.37;;;5.10;99.90;;;;;;5041102;28;20222;-44
2023/11/18 01:39:52;;;;;;;4.50;3.93;;;5.10;99.90;;;;;;5038935;28;20277;-46
2023/11/18 01:42:19;;;;;;;4.87;3.80;;;5.10;99.90;;;;;;5041001;28;20199;-46
2023/11/18 01:44:47;;;;;;;4.13;3.70;;;5.10;99.90;;;;;;5008754;28;20219;-48
2023/11/18 01:47:14;;;;;;;5.63;4.13;;;5.10;99.90;;;;;;5040931;28;20285;-46
2023/11/18 01:49:43;;;;;;;4.27;3.87;;;5.20;99.90;;;;;;5035060;28;20256;-46
2023/11/18 01:52:11;;;;;;;5.37;3.93;;;5.10;99.90;;;;;;5041501;28;20195;-47
2023/11/18 01:54:39;;;;;;;4.47;3.80;;;5.10;99.90;;;;;;5039593;28;20200;-42
2023/11/18 01:57:08;;;;;;;4.17;3.40;;;5.00;99.90;;;;;;5042949;28;20219;-44
2023/11/18 01:59:37;;;;;;;5.23;4.17;;;5.10;99.90;;;;;;5008013;28;20215;-43
2023/11/18 02:02:05;;;;;;;4.77;4.10;;;5.00;99.90;;;;;;5034030;28;20304;-45
2023/11/18 02:04:33;;;;;;;5.03;3.87;;;5.10;99.90;;;;;;5032444;28;20192;-44
2023/11/18 02:07:06;;;;;;;4.93;3.70;;;5.00;99.90;;;;;;5040430;28;20844;-42
2023/11/18 02:09:34;;;;;;;5.03;4.10;;;5.00;99.90;;;;;;5037717;28;20195;-44
2023/11/18 02:12:14;;;;;;;4.67;3.70;;;5.00;99.90;;;;;;5031625;28;20196;-43
2023/11/18 02:14:45;;;;;;;5.83;4.03;;;5.00;99.90;;;;;;5001810;28;20369;-45
2023/11/18 02:17:18;;;;;;;4.63;4.23;;;4.90;99.90;;;;;;5037731;28;20266;-47
2023/11/18 02:19:46;;;;;;;5.23;4.73;;;4.90;99.90;;;;;;5035110;28;20215;-47
2023/11/18 02:22:15;;;;;;;6.50;5.07;;;4.90;99.90;;;;;;5041278;28;20714;-42
2023/11/18 02:24:42;;;;;;;5.40;4.90;;;4.90;99.90;;;;;;5037175;28;20257;-47
2023/11/18 02:27:11;;;;;;;7.40;5.80;;;4.80;99.90;;;;;;5042350;28;20284;-47
2023/11/18 02:29:42;;;;;;;5.77;5.27;;;4.80;99.90;;;;;;5012579;28;20213;-43
2023/11/18 02:32:16;;;;;;;9.00;6.00;;;4.80;99.90;;;;;;5038343;28;20237;-47
2023/11/18 02:34:48;;;;;;;7.57;5.47;;;4.80;99.90;;;;;;5035261;28;20202;-48
2023/11/18 02:37:16;;;;;;;6.83;5.90;;;4.80;99.90;;;;;;5042022;28;20222;-43
2023/11/18 02:39:47;;;;;;;8.00;6.17;;;4.80;99.90;;;;;;5036688;28;20242;-42
2023/11/18 02:42:16;;;;;;;6.10;5.50;;;4.80;99.90;;;;;;5041346;28;20566;-44
2023/11/18 02:44:45;;;;;;;7.30;5.73;;;4.80;99.90;;;;;;5036218;28;20286;-45
2023/11/18 02:47:12;;;;;;;6.27;5.63;;;4.80;99.90;;;;;;5007917;28;20249;-45
2023/11/18 02:49:40;;;;;;;7.67;6.20;;;4.80;99.90;;;;;;5037373;28;20693;-43
2023/11/18 02:52:09;;;;;;;9.33;6.17;;;4.80;99.90;;;;;;5041699;28;20229;-43
2023/11/18 02:54:37;;;;;;;6.73;6.10;;;4.80;99.90;;;;;;5038523;28;20191;-44
2023/11/18 02:57:04;;;;;;;7.03;5.90;;;4.80;99.90;;;;;;5040226;28;20640;-44
2023/11/18 02:59:32;;;;;;;7.57;5.87;;;4.80;99.90;;;;;;5038383;28;20219;-45
2023/11/18 03:02:01;;;;;;;8.90;6.83;;;4.80;99.90;;;;;;5010076;28;20358;-43
2023/11/18 03:04:28;;;;;;;6.83;6.13;;;4.80;99.90;;;;;;5040509;28;20705;-41
2023/11/18 03:06:55;;;;;;;8.73;6.73;;;4.80;99.90;;;;;;5038631;28;20223;-49
2023/11/18 03:09:27;;;;;;;7.57;6.77;;;4.80;99.90;;;;;;5041241;28;20254;-41
2023/11/18 03:11:54;;;;;;;7.53;6.37;;;4.90;99.90;;;;;;5039026;28;20277;-47
2023/11/18 03:14:21;;;;;;;6.67;5.93;;;4.80;99.90;;;;;;5038593;28;20257;-42
2023/11/18 03:16:49;;;;;;;6.70;6.00;;;4.80;99.90;;;;;;5008165;28;21349;-42
2023/11/18 03:19:16;;;;;;;7.70;6.57;;;4.80;99.90;;;;;;5040828;28;20647;-44
2023/11/18 03:21:44;;;;;;;8.00;6.20;;;4.80;99.90;;;;;;5036212;28;20929;-45
2023/11/18 03:24:10;;;;;;;7.13;6.03;;;4.80;99.90;;;;;;5038429;28;20199;-45
2023/11/18 03:26:38;;;;;;;7.20;5.90;;;4.80;99.90;;;;;;5037519;28;20206;-41
2023/11/18 03:29:06;;;;;;;6.77;5.80;;;4.80;99.90;;;;;;5039649;28;20195;-45
2023/11/18 03:31:33;;;;;;;9.10;6.30;;;4.90;99.90;;;;;;5037981;28;20954;-43
2023/11/18 03:34:01;;;;;;;8.43;6.60;;;4.90;99.90;;;;;;5012591;28;20249;-43
2023/11/18 03:36:28;;;;;;;8.40;6.27;;;4.80;99.90;;;;;;5036354;28;20257;-42
2023/11/18 03:38:55;;;;;;;7.93;6.13;;;4.90;99.90;;;;;;5037376;28;21058;-47
2023/11/18 03:41:23;;;;;;;8.77;6.30;;;4.80;99.90;;;;;;5039553;28;20207;-44
2023/11/18 03:43:50;;;;;;;8.13;6.13;;;4.80;99.90;;;;;;5038110;28;20192;-46
2023/11/18 03:46:17;;;;;;;9.30;5.93;;;4.80;99.90;;;;;;5040819;28;20195;-46
2023/11/18 03:48:45;;;;;;;8.33;6.77;;;4.90;99.90;;;;;;5005895;28;20223;-49
2023/11/18 03:51:16;;;;;;;6.80;6.07;;;4.90;99.90;;;;;;5039006;28;20682;-48
2023/11/18 03:53:43;;;;;;;9.57;6.30;;;4.90;99.90;;;;;;5036804;28;20770;-47
2023/11/18 03:56:10;;;;;;;7.20;6.07;;;4.90;99.90;;;;;;5040798;28;20195;-44
2023/11/18 03:58:37;;;;;;;7.50;6.00;;;4.90;99.90;;;;;;5037542;28;20215;-42
2023/11/18 04:01:04;;;;;;;8.23;6.23;;;4.90;99.90;;;;;;5039219;28;20226;-44
2023/11/18 04:03:31;;;;;;;6.70;6.00;;;4.90;99.90;;;;;;5010765;28;20249;-43
2023/11/18 04:05:58;;;;;;;7.60;6.07;;;4.90;99.90;;;;;;5038927;28;20222;-43
2023/11/18 04:08:27;;;;;;;9.17;5.73;;;4.90;99.90;;;;;;5039708;28;20219;-43
2023/11/18 04:10:53;;;;;;;8.33;5.80;;;4.90;99.90;;;;;;5033199;28;21008;-47
2023/11/18 04:13:20;;;;;;;8.37;5.60;;;4.90;99.90;;;;;;5036321;28;20245;-47
2023/11/18 04:15:47;;;;;;;7.17;5.50;;;4.90;99.90;;;;;;5035619;28;20280;-49
2023/11/18 04:18:14;;;;;;;7.10;5.70;;;5.00;99.90;;;;;;5010080;28;20237;-45
2023/11/18 04:20:41;;;;;;;6.10;5.50;;;5.00;99.90;;;;;;5032583;28;20227;-47
2023/11/18 04:23:08;;;;;;;6.90;5.83;;;4.90;99.90;;;;;;5039004;28;20261;-46
2023/11/18 04:25:36;;;;;;;6.80;5.90;;;4.90;99.90;;;;;;5037335;28;20207;-41
2023/11/18 04:28:04;;;;;;;7.70;5.50;;;5.00;99.90;;;;;;5038920;28;20310;-48
2023/11/18 04:30:30;;;;;;;5.27;4.73;;;5.00;99.90;;;;;;5038506;28;20305;-43
2023/11/18 04:32:58;;;;;;;7.83;5.63;;;5.00;99.90;;;;;;5037231;28;20926;-44
2023/11/18 04:35:24;;;;;;;6.33;5.70;;;5.00;99.90;;;;;;5015644;28;20236;-42
2023/11/18 04:37:51;;;;;;;6.87;5.03;;;5.00;99.90;;;;;;5040079;28;20302;-45
2023/11/18 04:40:18;;;;;;;5.67;5.07;;;5.00;99.90;;;;;;5042734;28;20222;-49
2023/11/18 04:42:46;;;;;;;7.30;6.03;;;5.00;99.90;;;;;;5038773;28;20980;-43
2023/11/18 04:45:14;;;;;;;6.20;5.43;;;5.00;99.90;;;;;;5044296;28;20191;-42
2023/11/18 04:47:42;;;;;;;9.30;5.33;;;5.00;99.90;;;;;;5038716;28;20288;-46
2023/11/18 04:50:11;;;;;;;6.13;5.47;;;5.00;99.90;;;;;;5015780;28;20203;-43
2023/11/18 04:52:37;;;;;;;6.63;5.43;;;5.00;99.90;;;;;;5037466;28;20223;-44
2023/11/18 04:55:06;;;;;;;6.73;5.77;;;5.00;99.90;;;;;;5044075;28;20195;-44
2023/11/18 04:57:33;;;;;;;7.43;5.50;;;5.00;99.90;;;;;;5040611;28;20269;-42
2023/11/18 05:00:10;;;;;;;7.37;6.07;;;5.00;99.90;;;;;;5042475;28;20214;-46
2023/11/18 05:02:37;;;;;;;7.13;5.33;;;5.00;99.90;;;;;;5040169;28;20231;-41
2023/11/18 05:05:04;;;;;;;9.27;5.87;;;5.00;99.90;;;;;;5043953;28;20539;-46
2023/11/18 05:07:32;;;;;;;8.10;5.40;;;5.00;99.90;;;;;;5010511;28;20230;-44
2023/11/18 05:09:59;;;;;;;6.50;5.83;;;5.00;99.90;;;;;;5042690;28;20859;-47
2023/11/18 05:12:25;;;;;;;7.90;5.47;;;5.00;99.90;;;;;;5042775;28;20582;-41
2023/11/18 05:14:52;;;;;;;9.27;6.57;;;5.00;99.90;;;;;;5040601;28;20203;-46
2023/11/18 05:17:20;;;;;;;6.30;5.40;;;5.00;99.90;;;;;;5043437;28;20843;-50
2023/11/18 05:19:47;;;;;;;8.53;5.80;;;4.90;99.90;;;;;;5039647;28;20281;-46
2023/11/18 05:22:15;;;;;;;8.63;5.77;;;4.90;99.90;;;;;;5012704;28;20202;-46
2023/11/18 05:24:42;;;;;;;6.37;5.57;;;4.90;99.90;;;;;;5039869;28;20290;-43
2023/11/18 05:27:09;;;;;;;7.30;5.37;;;4.90;99.90;;;;;;5043007;28;20293;-45
2023/11/18 05:29:36;;;;;;;7.60;5.77;;;4.90;99.90;;;;;;5039179;28;20204;-41
2023/11/18 05:32:02;;;;;;;7.00;5.87;;;4.90;99.90;;;;;;5042987;28;20199;-42
2023/11/18 05:34:31;;;;;;;6.77;5.33;;;4.90;99.90;;;;;;5041914;28;20253;-44
2023/11/18 05:36:59;;;;;;;8.80;5.93;;;4.80;99.90;;;;;;5011521;28;20225;-44
2023/11/18 05:39:27;;;;;;;7.27;5.53;;;4.90;99.90;;;;;;5040976;28;20203;-41
2023/11/18 05:41:55;;;;;;;10.23;5.87;;;4.90;99.90;;;;;;5040887;28;20928;-43
2023/11/18 05:44:30;;;;;;;10.37;6.30;;;4.80;99.90;;;;;;5042955;28;20944;-42
2023/11/18 05:46:57;;;;;;;7.73;5.60;;;4.80;99.90;;;;;;5040216;28;20945;-44
2023/11/18 05:49:24;;;;;;;7.43;5.40;;;4.90;99.90;;;;;;5042491;28;20203;-42
2023/11/18 05:51:52;;;;;;;8.10;6.30;;;4.80;99.90;;;;;;5039959;28;20200;-46
2023/11/18 05:54:19;;;;;;;9.03;6.10;;;4.80;99.90;;;;;;5014348;28;20265;-46
2023/11/18 05:56:46;;;;;;;6.70;5.80;;;4.80;99.90;;;;;;5039168;28;21005;-50
2023/11/18 05:59:13;;;;;;;7.03;5.40;;;4.80;99.90;;;;;;5042835;28;20207;-44
2023/11/18 06:01:41;;;;;;;8.77;6.40;;;4.80;99.90;;;;;;5038837;28;20245;-43
2023/11/18 06:04:09;;;;;;;11.17;5.80;;;4.80;99.90;;;;;;5041707;28;20211;-45
2023/11/18 06:06:37;;;;;;;9.50;6.57;;;4.70;99.90;;;;;;5038969;28;20291;-44
2023/11/18 06:09:09;;;;;;;7.53;6.10;;;4.70;99.90;;;;;;5014822;28;20299;-45
2023/11/18 06:11:41;;;;;;;6.90;5.60;;;4.70;99.90;;;;;;5040486;28;20203;-41
2023/11/18 06:14:08;;;;;;;7.40;6.10;;;4.70;99.90;;;;;;5040625;28;20208;-47
2023/11/18 06:16:35;;;;;;;9.40;6.37;;;4.60;99.90;;;;;;5034025;28;20196;-42
2023/11/18 06:19:04;;;;;;;8.43;6.10;;;4.60;99.90;;;;;;5039975;28;20261;-44
2023/11/18 06:21:32;;;;;;;9.23;6.37;;;4.60;99.90;;;;;;5039404;28;20702;-44
2023/11/18 06:24:00;;;;;;;8.67;6.20;;;4.60;99.90;;;;;;5011342;28;20204;-44
2023/11/18 06:26:28;;;;;;;8.00;6.20;;;4.60;99.90;;;;;;5041704;28;20608;-45
2023/11/18 06:28:56;;;;;;;7.97;6.00;;;4.50;99.90;;;;;;5040195;28;20876;-49
2023/11/18 06:31:23;;;;;;;9.17;6.73;;;4.50;99.90;;;;;;5041472;28;20265;-46
2023/11/18 06:33:51;;;;;;;8.33;6.23;;;4.50;99.90;;;;;;5038773;28;20195;-44
2023/11/18 06:36:17;;;;;;;7.57;5.63;;;4.60;99.90;;;;;;5041470;28;20304;-47
2023/11/18 06:38:45;;;;;;;8.70;6.60;;;4.60;99.90;;;;;;5007058;28;21799;-48
2023/11/18 06:41:13;;;;;;;6.97;6.20;;;4.50;99.90;;;;;;5028050;28;20313;-45
2023/11/18 06:43:56;;;;;;;9.80;6.43;;;4.50;99.90;;;;;;5041136;28;21841;-44
2023/11/18 06:46:24;;;;;;;7.57;6.13;;;4.50;99.90;;;;;;5037561;28;20222;-46
2023/11/18 06:48:54;;;;;;;11.50;6.53;;;4.50;99.90;;;;;;5034164;28;20560;-42
2023/11/18 06:51:21;;;;;;;7.77;6.67;;;4.50;99.90;;;;;;5038817;28;20195;-46
2023/11/18 06:53:50;;;;;;;7.30;6.17;;;4.50;99.90;;;;;;5036070;28;20226;-42
2023/11/18 06:56:17;;;;;;;8.17;6.67;;;4.50;99.90;;;;;;5011650;28;20222;-49
2023/11/18 06:58:45;;;;;;;9.10;6.80;;;4.50;99.90;;;;;;5040074;28;20755;-46
2023/11/18 07:01:14;;;;;;;7.90;6.40;;;4.50;99.90;;;;;;5027400;28;20269;-47
2023/11/18 07:03:42;;;;;;;9.47;6.07;;;4.50;99.90;;;;;;5032913;28;20215;-44
2023/11/18 07:06:09;;;;;;;8.83;6.63;;;4.50;99.90;;;;;;5021943;28;20219;-42
2023/11/18 07:08:36;;;;;;;9.73;6.60;;;4.40;99.90;;;;;;5034082;28;21107;-44
2023/11/18 07:11:04;;;;;;;8.10;6.67;;;4.40;99.90;;;;;;5007740;28;20231;-46
2023/11/18 07:13:31;;;;;;;10.67;7.27;;;4.30;99.90;;;;;;5038350;28;20203;-42
2023/11/18 07:15:59;;;;;;;9.67;7.00;;;4.30;99.90;;;;;;5022500;28;20300;-47
2023/11/18 07:18:26;;;;;;;9.53;7.07;;;4.30;99.90;;;;;;5035124;28;20711;-42
2023/11/18 07:20:53;;;;;;;10.03;7.27;;;4.30;99.90;;;;;;5024361;28;20227;-49
2023/11/18 07:23:20;;;;;;;11.13;7.17;;;4.30;99.90;;;;;;5022166;28;20215;-42
2023/11/18 07:25:47;;;;;;;11.63;7.17;;;4.30;99.90;;;;;;5002503;28;20215;-42
2023/11/18 07:28:15;;;;;;;12.10;7.80;;;4.30;99.90;;;;;;5039478;28;20246;-46
2023/11/18 07:30:42;;;;;;;10.87;6.83;;;4.30;99.90;;;;;;5036393;28;20274;-46
2023/11/18 07:33:11;;;;;;;9.53;6.90;;;4.40;99.90;;;;;;5033632;28;20200;-48
2023/11/18 07:35:37;;;;;;;10.33;7.07;;;4.40;99.90;;;;;;5028161;28;20246;-42
2023/11/18 07:38:07;;;;;;;11.47;7.47;;;4.40;99.90;;;;;;5022594;28;20820;-43
2023/11/18 07:40:35;;;;;;;8.80;6.77;;;4.50;99.90;;;;;;5014794;28;20207;-41
2023/11/18 07:43:02;;;;;;;10.67;7.13;;;4.50;99.90;;;;;;5035288;28;20719;-43
2023/11/18 07:45:37;;;;;;;11.33;7.73;;;4.60;99.90;;;;;;5035893;28;20223;-44
2023/11/18 07:48:06;;;;;;;9.93;6.97;;;4.60;99.90;;;;;;5038060;28;20268;-44
2023/11/18 07:50:35;;;;;;;11.80;7.23;;;4.60;99.90;;;;;;5028998;28;20210;-41
2023/11/18 07:53:02;;;;;;;12.57;8.13;;;4.60;99.90;;;;;;5028661;28;20200;-44
2023/11/18 07:55:28;;;;;;;9.27;7.40;;;4.60;99.90;;;;;;5029789;28;20256;-42
2023/11/18 07:57:55;;;;;;;8.73;6.90;;;4.70;99.90;;;;;;5013070;28;20381;-44
2023/11/18 08:00:23;;;;;;;11.50;7.33;;;4.70;99.90;;;;;;5039638;28;20222;-43
2023/11/18 08:02:51;;;;;;;8.43;7.07;;;4.80;99.90;;;;;;5036571;28;20191;-42
2023/11/18 08:05:19;;;;;;;11.27;6.97;;;4.80;99.90;;;;;;5032862;28;20229;-44
2023/11/18 08:07:47;;;;;;;12.27;7.33;;;4.80;99.90;;;;;;5026201;28;20455;-47
2023/11/18 08:10:18;;;;;;;12.33;6.90;;;4.90;99.90;;;;;;5015787;28;20207;-43
2023/11/18 08:12:46;;;;;;;9.63;7.57;;;5.00;99.90;;;;;;5001154;28;21019;-45
2023/11/18 08:15:14;;;;;;;15.23;8.23;;;5.00;99.90;;;;;;5039696;28;20203;-41
2023/11/18 08:17:40;;;;;;;10.70;7.77;;;5.00;99.90;;;;;;5036520;28;20297;-46
2023/11/18 08:20:13;;;;;;;11.17;8.13;;;5.00;99.90;;;;;;5035891;28;20237;-45
2023/11/18 08:22:41;;;;;;;9.97;7.23;;;5.10;99.90;;;;;;5030895;28;20203;-45
2023/11/18 08:25:10;;;;;;;12.50;8.60;;;5.10;99.90;;;;;;5021527;28;20195;-43
2023/11/18 08:27:37;;;;;;;9.20;7.30;;;5.10;99.90;;;;;;5030180;28;20312;-42
2023/11/18 08:30:05;;;;;;;11.20;8.30;;;5.20;99.90;;;;;;5017673;28;20215;-44
2023/11/18 08:32:32;;;;;;;10.70;7.60;;;5.20;99.90;;;;;;5034630;28;20216;-45
2023/11/18 08:34:59;;;;;;;11.97;7.90;;;5.30;99.90;;;;;;5027425;28;20261;-45
2023/11/18 08:37:27;;;;;;;11.97;8.07;;;5.20;99.90;;;;;;5023646;28;20312;-44
2023/11/18 08:39:54;;;;;;;10.27;8.07;;;5.20;99.90;;;;;;5040510;28;20201;-43
2023/11/18 08:42:24;;;;;;;11.23;8.33;;;5.20;99.90;;;;;;5027375;28;20835;-46
2023/11/18 08:44:51;;;;;;;12.13;8.20;;;5.30;99.90;;;;;;5005398;28;20211;-46
2023/11/18 08:47:18;;;;;;;15.07;8.47;;;5.30;99.90;;;;;;5031838;28;20226;-47
2023/11/18 08:49:46;;;;;;;12.27;8.13;;;5.30;99.90;;;;;;5035176;28;20210;-43
2023/11/18 08:52:13;;;;;;;11.93;8.10;;;5.40;99.90;;;;;;5030673;28;20662;-45
2023/11/18 08:55:17;;;;;;;11.00;8.17;;;5.50;99.90;;;;;;5035912;28;20188;-43
2023/11/18 08:57:39;;;;;;;10.77;7.60;;;5.60;99.90;;;;;;5029446;28;20255;-44
2023/11/18 09:00:42;;;;;;;8.97;6.60;;;5.60;99.90;;;;;;5025741;28;20199;-45
2023/11/18 09:03:05;;;;;;;8.50;7.07;;;5.70;99.90;;;;;;5033174;28;20278;-43
2023/11/18 09:05:32;;;;;;;10.47;6.77;;;5.70;99.90;;;;;;5034504;28;20194;-43
2023/11/18 09:08:00;;;;;;;9.20;6.67;;;5.80;99.90;;;;;;5033503;28;20219;-44
2023/11/18 09:10:28;;;;;;;12.47;6.93;;;5.70;99.90;;;;;;5035860;28;20564;-43
2023/11/18 09:12:57;;;;;;;10.83;7.20;;;5.80;99.90;;;;;;5030200;28;20191;-44
2023/11/18 09:15:23;;;;;;;5.90;5.03;;;5.80;99.90;;;;;;5029753;28;20684;-43
2023/11/18 09:17:50;;;;;;;6.90;5.07;;;5.80;99.90;;;;;;5008610;28;20215;-44
2023/11/18 09:20:20;;;;;;;8.67;5.57;;;5.80;99.90;;;;;;5025340;28;20195;-44
2023/11/18 09:22:49;;;;;;;7.03;4.90;;;5.80;99.90;;;;;;5038624;28;20226;-44
2023/11/18 09:25:17;;;;;;;8.10;5.10;;;5.80;99.90;;;;;;5026747;28;20463;-43
2023/11/18 09:27:45;;;;;;;4.97;4.40;;;5.90;99.90;;;;;;5022732;28;20331;-43
2023/11/18 09:30:14;;;;;;;5.13;4.53;;;5.90;99.90;;;;;;5036890;28;20684;-43
2023/11/18 09:32:42;;;;;;;6.80;4.53;;;6.00;99.90;;;;;;5009678;28;20212;-43
2023/11/18 09:35:12;;;;;;;6.03;4.63;;;5.90;99.90;;;;;;5043140;28;20201;-44
2023/11/18 09:37:40;;;;;;;8.40;4.73;;;5.90;99.90;;;;;;5040279;28;20233;-43
2023/11/18 09:40:12;;;;;;;5.97;3.90;;;5.90;99.90;;;;;;5026893;28;20311;-46
2023/11/18 09:42:39;;;;;;;4.73;4.00;;;6.00;99.90;;;;;;5030338;28;20304;-43
2023/11/18 09:45:13;;;;;;;3.90;3.50;;;6.00;99.90;;;;;;5038291;28;20617;-43
2023/11/18 09:47:47;;;;;;;3.50;3.10;;;6.10;99.90;;;;;;5001536;28;20945;-42
2023/11/18 09:50:17;;;;;;;3.50;3.00;;;6.10;99.90;;;;;;5035366;28;20200;-48
2023/11/18 09:52:51;;;;;;;3.70;3.13;;;6.20;99.90;;;;;;5053341;28;20226;-41
2023/11/18 09:55:27;;;;;;;3.00;2.77;;;6.30;99.90;;;;;;5030806;28;20211;-49
2023/11/18 09:58:00;;;;;;;3.10;2.80;;;6.50;99.90;;;;;;5028985;28;20268;-47
2023/11/18 10:00:32;;;;;;;2.90;2.60;;;6.60;99.90;;;;;;5028208;28;20219;-41
2023/11/18 10:03:01;;;;;;;2.50;2.30;;;6.50;99.90;;;;;;4997528;28;20219;-46
2023/11/18 10:05:30;;;;;;;3.17;2.40;;;6.50;99.90;;;;;;5039572;28;20659;-41
2023/11/18 10:07:58;;;;;;;2.50;2.30;;;6.60;99.90;;;;;;5038497;28;20219;-49
2023/11/18 10:10:30;;;;;;;2.70;2.40;;;6.70;99.90;;;;;;5029173;28;20207;-42
2023/11/18 10:12:58;;;;;;;1.70;1.60;;;6.70;99.90;;;;;;5031095;28;20228;-43
2023/11/18 10:15:26;;;;;;;2.20;1.87;;;6.70;99.90;;;;;;5019973;28;20227;-45
2023/11/18 10:17:59;;;;;;;2.47;2.10;;;6.70;99.90;;;;;;5002526;28;20227;-47
2023/11/18 10:20:45;;;;;;;3.20;2.10;;;6.70;99.90;;;;;;5022793;28;20195;-49
2023/11/18 10:23:18;;;;;;;2.47;2.27;;;6.70;99.90;;;;;;5040064;28;20822;-41
2023/11/18 10:25:48;;;;;;;3.43;2.10;;;6.70;99.90;;;;;;5013451;28;20207;-50
2023/11/18 10:28:23;;;;;;;2.10;1.90;;;6.80;99.90;;;;;;5028298;28;20215;-48
2023/11/18 10:30:51;;;;;;;1.90;1.80;;;6.80;99.90;;;;;;5021246;28;20340;-45
2023/11/18 10:33:19;;;;;;;2.20;2.00;;;6.80;99.90;;;;;;4997380;28;20296;-47
2023/11/18 10:35:55;;;;;;;2.30;1.70;;;6.80;99.90;;;;;;5028950;28;20998;-43
2023/11/18 10:38:25;;;;;;;2.00;1.80;;;6.80;99.90;;;;;;5030441;28;20238;-47
2023/11/18 10:40:55;;;;;;;1.93;1.73;;;6.90;99.90;;;;;;5019047;28;20239;-43
2023/11/18 10:43:24;;;;;;;1.53;1.43;;;6.90;99.90;;;;;;5031982;28;20538;-47
2023/11/18 10:45:52;;;;;;;2.20;1.80;;;6.90;99.90;;;;;;5020116;28;21655;-42
2023/11/18 10:48:20;;;;;;;1.93;1.70;;;6.90;99.90;;;;;;5012783;28;20264;-45
2023/11/18 10:50:48;;;;;;;3.17;1.87;;;6.90;99.90;;;;;;5027672;28;23155;-44
2023/11/18 10:53:17;;;;;;;1.80;1.60;;;6.90;99.90;;;;;;5038166;28;20210;-43
2023/11/18 10:55:44;;;;;;;2.00;1.80;;;7.00;99.90;;;;;;5020856;28;20195;-41
2023/11/18 10:58:14;;;;;;;2.13;1.93;;;7.10;99.90;;;;;;5034247;28;20923;-42
2023/11/18 11:00:48;;;;;;;2.10;1.90;;;7.10;99.90;;;;;;5028128;28;23458;-41
2023/11/18 11:03:16;;;;;;;2.10;1.73;;;7.10;99.90;;;;;;5013276;28;20220;-43
2023/11/18 11:05:45;;;;;;;1.77;1.67;;;7.00;99.90;;;;;;5046232;28;20182;-43
2023/11/18 11:08:16;;;;;;;2.20;2.00;;;7.10;99.90;;;;;;5033331;28;20215;-44
2023/11/18 11:10:43;;;;;;;3.17;2.40;;;7.10;99.90;;;;;;5018843;28;20314;-43
2023/11/18 11:13:12;;;;;;;1.77;1.67;;;7.20;99.90;;;;;;5027141;28;20207;-44
2023/11/18 11:15:45;;;;;;;2.70;1.73;;;7.20;99.90;;;;;;5028882;28;20203;-46
2023/11/18 11:18:22;;;;;;;2.30;2.03;;;7.20;99.90;;;;;;5002969;28;20222;-43
2023/11/18 11:21:03;;;;;;;2.03;1.90;;;7.20;99.90;;;;;;5035550;28;20202;-43
2023/11/18 11:23:53;;;;;;;3.50;2.07;;;7.20;99.90;;;;;;5031264;28;20276;-47
2023/11/18 11:26:30;;;;;;;2.13;1.90;;;7.30;99.90;;;;;;5025435;28;20743;-44
2023/11/18 11:29:09;;;;;;;2.03;1.80;;;7.30;99.90;;;;;;5032527;28;20219;-42
2023/11/18 11:31:40;;;;;;;3.10;2.03;;;7.30;99.90;;;;;;5028725;28;21366;-44
2023/11/18 11:34:10;;;;;;;2.90;1.67;;;7.30;99.90;;;;;;5017337;28;20290;-42
2023/11/18 11:36:42;;;;;;;1.50;1.40;;;7.30;99.90;;;;;;5037438;28;20211;-45
2023/11/18 11:39:14;;;;;;;2.40;1.53;;;7.40;99.90;;;;;;5040220;28;20612;-43
2023/11/18 11:41:46;;;;;;;1.93;1.80;;;7.30;99.90;;;;;;5023951;28;20311;-43
2023/11/18 11:44:14;;;;;;;1.63;1.53;;;7.20;99.90;;;;;;5033988;28;20221;-42
2023/11/18 11:46:42;;;;;;;1.30;1.17;;;7.30;99.90;;;;;;5026767;28;20207;-46
2023/11/18 11:49:17;;;;;;;3.00;1.63;;;7.30;99.90;;;;;;5016322;28;20213;-42
2023/11/18 11:51:49;;;;;;;1.77;1.67;;;7.30;99.90;;;;;;5046593;28;20195;-45
2023/11/18 11:54:24;;;;;;;1.00;1.00;;;7.20;99.90;;;;;;5036954;28;20670;-43
2023/11/18 11:56:55;;;;;;;1.73;1.47;;;7.20;99.90;;;;;;5027323;28;20309;-46
2023/11/18 11:59:37;;;;;;;1.43;1.33;;;7.10;99.90;;;;;;5022508;28;20203;-44
2023/11/18 12:02:09;;;;;;;2.27;1.50;;;7.20;99.90;;;;;;5038989;28;20204;-44
2023/11/18 12:04:37;;;;;;;1.87;1.77;;;7.20;99.90;;;;;;4998114;28;20269;-43
2023/11/18 12:07:06;;;;;;;2.57;1.50;;;7.10;99.90;;;;;;5037672;28;20219;-42
2023/11/18 12:09:38;;;;;;;1.90;1.63;;;7.10;99.90;;;;;;5023036;28;20272;-46
2023/11/18 12:12:09;;;;;;;2.50;1.70;;;7.10;99.90;;;;;;5022769;28;20191;-43
2023/11/18 12:14:52;;;;;;;1.87;1.77;;;7.00;99.90;;;;;;5028805;28;20309;-47
2023/11/18 12:17:22;;;;;;;2.10;1.73;;;7.00;99.90;;;;;;5035106;28;20223;-44
2023/11/18 12:19:48;;;;;;;1.90;1.80;;;7.00;99.90;;;;;;5000026;28;20686;-42
2023/11/18 12:22:24;;;;;;;1.70;1.60;;;7.00;99.90;;;;;;5036373;28;21083;-45
2023/11/18 12:25:36;;;;;;;1.67;1.57;;;6.90;99.90;;;;;;5038214;28;20191;-43
2023/11/18 12:28:14;;;;;;;1.73;1.63;;;6.90;99.90;;;;;;5018055;28;20233;-45
2023/11/18 12:30:58;;;;;;;2.20;2.00;;;6.90;99.90;;;;;;5025015;28;20567;-45
2023/11/18 12:33:28;;;;;;;2.97;2.50;;;6.90;99.90;;;;;;5037997;28;20176;-43
2023/11/18 12:36:35;;;;;;;2.43;2.23;;;6.90;99.90;;;;;;5002291;28;20210;-44
2023/11/18 12:39:37;;;;;;;2.30;2.10;;;6.90;99.90;;;;;;5028993;28;20195;-46
2023/11/18 12:42:07;;;;;;;2.40;2.20;;;6.90;99.90;;;;;;5015130;28;20223;-43
2023/11/18 12:44:41;;;;;;;2.50;2.30;;;6.90;99.90;;;;;;5026472;28;20585;-44
2023/11/18 12:47:18;;;;;;;2.63;2.43;;;6.90;99.90;;;;;;5034816;28;20294;-43
2023/11/18 12:49:53;;;;;;;2.90;2.70;;;6.90;99.90;;;;;;5039874;28;20581;-44
2023/11/18 12:52:21;;;;;;;3.00;2.70;;;6.80;99.90;;;;;;5019247;28;20301;-45
2023/11/18 12:54:50;;;;;;;3.43;3.10;;;6.80;99.90;;;;;;5040609;28;21007;-46
2023/11/18 12:57:17;;;;;;;8.23;3.23;;;6.90;99.90;;;;;;5027804;28;20215;-43
2023/11/18 12:59:46;;;;;;;4.10;3.47;;;6.80;99.90;;;;;;5029379;28;20490;-43
2023/11/18 13:02:19;;;;;;;3.63;3.33;;;6.80;99.90;;;;;;5022977;28;20224;-42
2023/11/18 13:04:47;;;;;;;3.13;2.73;;;6.80;99.90;;;;;;5039305;28;20199;-42
2023/11/18 13:07:14;;;;;;;4.47;3.10;;;6.70;99.90;;;;;;5020157;28;20222;-43